sensor_id;sensor_type;location;lat;lon;timestamp;temperature;humidity
4811;DHT22;2419;51.276;6.472;2023-01-08T00:02:03;10.80;99.90
4811;DHT22;2419;51.276;6.472;2023-01-08T00:04:31;10.80;99.90
4811;DHT22;2419;51.276;6.472;2023-01-08T00:06:59;10.70;99.90
4811;DHT22;2419;51.276;6.472;2023-01-08T00:09:27;10.70;99.90
4811;DHT22;2419;51.276;6.472;2023-01-08T00:11:55;10.70;99.90
4811;DHT22;2419;51.276;6.472;2023-01-08T00:14:23;10.60;99.90
4811;DHT22;2419;51.276;6.472;2023-01-08T00:16:51;10.60;99.90
4811;DHT22;2419;51.276;6.472;2023-01-08T00:19:21;10.70;99.90
4811;DHT22;2419;51.276;6.472;2023-01-08T00:21:49;10.70;99.90
4811;DHT22;2419;51.276;6.472;2023-01-08T00:24:17;10.70;99.90
4811;DHT22;2419;51.276;6.472;2023-01-08T00:26:46;10.70;99.90
4811;DHT22;2419;51.276;6.472;2023-01-08T00:29:14;10.70;99.90
4811;DHT22;2419;51.276;6.472;2023-01-08T00:31:42;10.70;99.90
4811;DHT22;2419;51.276;6.472;2023-01-08T00:34:11;10.70;99.90
4811;DHT22;2419;51.276;6.472;2023-01-08T00:36:40;10.70;99.90
4811;DHT22;2419;51.276;6.472;2023-01-08T00:39:08;10.70;99.90
4811;DHT22;2419;51.276;6.472;2023-01-08T00:41:36;10.70;99.90
4811;DHT22;2419;51.276;6.472;2023-01-08T00:44:04;10.80;99.90
4811;DHT22;2419;51.276;6.472;2023-01-08T00:46:32;10.70;99.90
4811;DHT22;2419;51.276;6.472;2023-01-08T00:49:00;10.80;99.90
4811;DHT22;2419;51.276;6.472;2023-01-08T00:51:28;10.80;99.90
4811;DHT22;2419;51.276;6.472;2023-01-08T00:53:58;10.80;99.90
4811;DHT22;2419;51.276;6.472;2023-01-08T00:56:26;10.70;99.90
4811;DHT22;2419;51.276;6.472;2023-01-08T00:58:54;10.70;99.90
4811;DHT22;2419;51.276;6.472;2023-01-08T01:01:22;10.70;99.90
4811;DHT22;2419;51.276;6.472;2023-01-08T01:03:50;10.70;99.90
4811;DHT22;2419;51.276;6.472;2023-01-08T01:06:18;10.70;99.90
4811;DHT22;2419;51.276;6.472;2023-01-08T01:08:47;10.70;99.90
4811;DHT22;2419;51.276;6.472;2023-01-08T01:11:19;10.70;99.90
4811;DHT22;2419;51.276;6.472;2023-01-08T01:13:48;10.70;99.90
4811;DHT22;2419;51.276;6.472;2023-01-08T01:16:17;10.70;99.90
4811;DHT22;2419;51.276;6.472;2023-01-08T01:18:45;10.70;99.90
4811;DHT22;2419;51.276;6.472;2023-01-08T01:21:17;10.70;99.90
4811;DHT22;2419;51.276;6.472;2023-01-08T01:23:47;10.70;99.90
4811;DHT22;2419;51.276;6.472;2023-01-08T01:26:18;10.80;99.90
4811;DHT22;2419;51.276;6.472;2023-01-08T01:28:47;10.80;99.90
4811;DHT22;2419;51.276;6.472;2023-01-08T01:31:15;10.80;99.90
4811;DHT22;2419;51.276;6.472;2023-01-08T01:33:44;10.80;99.90
4811;DHT22;2419;51.276;6.472;2023-01-08T01:36:16;10.80;99.90
4811;DHT22;2419;51.276;6.472;2023-01-08T01:38:46;10.80;99.90
4811;DHT22;2419;51.276;6.472;2023-01-08T01:41:23;10.80;99.90
4811;DHT22;2419;51.276;6.472;2023-01-08T01:43:52;10.80;99.90
4811;DHT22;2419;51.276;6.472;2023-01-08T01:46:33;10.80;99.90
4811;DHT22;2419;51.276;6.472;2023-01-08T01:49:05;10.80;99.90
4811;DHT22;2419;51.276;6.472;2023-01-08T01:51:36;10.80;99.90
4811;DHT22;2419;51.276;6.472;2023-01-08T01:54:07;10.80;99.90
4811;DHT22;2419;51.276;6.472;2023-01-08T01:56:38;10.80;99.90
4811;DHT22;2419;51.276;6.472;2023-01-08T01:59:06;10.80;99.90
4811;DHT22;2419;51.276;6.472;2023-01-08T02:01:34;10.80;99.90
4811;DHT22;2419;51.276;6.472;2023-01-08T02:04:04;10.80;99.90
4811;DHT22;2419;51.276;6.472;2023-01-08T02:06:35;10.70;99.90
4811;DHT22;2419;51.276;6.472;2023-01-08T02:09:11;10.70;99.90
4811;DHT22;2419;51.276;6.472;2023-01-08T02:11:47;10.70;99.90
4811;DHT22;2419;51.276;6.472;2023-01-08T02:14:41;10.70;99.90
4811;DHT22;2419;51.276;6.472;2023-01-08T02:17:15;10.70;99.90
4811;DHT22;2419;51.276;6.472;2023-01-08T02:19:47;10.80;99.90
4811;DHT22;2419;51.276;6.472;2023-01-08T02:22:27;10.80;99.90
4811;DHT22;2419;51.276;6.472;2023-01-08T02:25:06;10.80;99.90
4811;DHT22;2419;51.276;6.472;2023-01-08T02:27:41;10.80;99.90
4811;DHT22;2419;51.276;6.472;2023-01-08T02:30:11;10.80;99.90
4811;DHT22;2419;51.276;6.472;2023-01-08T02:32:41;10.90;99.90
4811;DHT22;2419;51.276;6.472;2023-01-08T02:35:10;10.90;99.90
4811;DHT22;2419;51.276;6.472;2023-01-08T02:37:38;10.90;99.90
4811;DHT22;2419;51.276;6.472;2023-01-08T02:40:17;10.90;99.90
4811;DHT22;2419;51.276;6.472;2023-01-08T02:42:55;10.90;99.90
4811;DHT22;2419;51.276;6.472;2023-01-08T02:45:34;10.80;99.90
4811;DHT22;2419;51.276;6.472;2023-01-08T02:48:08;10.80;99.90
4811;DHT22;2419;51.276;6.472;2023-01-08T02:50:40;10.90;99.90
4811;DHT22;2419;51.276;6.472;2023-01-08T02:53:12;10.90;99.90
4811;DHT22;2419;51.276;6.472;2023-01-08T02:55:45;10.90;99.90
4811;DHT22;2419;51.276;6.472;2023-01-08T02:58:16;10.90;99.90
4811;DHT22;2419;51.276;6.472;2023-01-08T03:00:45;10.90;99.90
4811;DHT22;2419;51.276;6.472;2023-01-08T03:03:16;10.90;99.90
4811;DHT22;2419;51.276;6.472;2023-01-08T03:05:49;10.80;99.90
4811;DHT22;2419;51.276;6.472;2023-01-08T03:08:18;10.90;99.90
4811;DHT22;2419;51.276;6.472;2023-01-08T03:10:52;10.90;99.90
4811;DHT22;2419;51.276;6.472;2023-01-08T03:13:26;10.90;99.90
4811;DHT22;2419;51.276;6.472;2023-01-08T03:15:59;10.90;99.90
4811;DHT22;2419;51.276;6.472;2023-01-08T03:18:33;10.90;99.90
4811;DHT22;2419;51.276;6.472;2023-01-08T03:21:04;10.90;99.90
4811;DHT22;2419;51.276;6.472;2023-01-08T03:23:34;10.90;99.90
4811;DHT22;2419;51.276;6.472;2023-01-08T03:26:04;11.00;99.90
4811;DHT22;2419;51.276;6.472;2023-01-08T03:28:40;10.90;99.90
4811;DHT22;2419;51.276;6.472;2023-01-08T03:31:12;10.90;99.90
4811;DHT22;2419;51.276;6.472;2023-01-08T03:33:42;10.90;99.90
4811;DHT22;2419;51.276;6.472;2023-01-08T03:36:13;10.90;99.90
4811;DHT22;2419;51.276;6.472;2023-01-08T03:38:46;10.90;99.90
4811;DHT22;2419;51.276;6.472;2023-01-08T03:41:17;10.90;99.90
4811;DHT22;2419;51.276;6.472;2023-01-08T03:43:47;10.90;99.90
4811;DHT22;2419;51.276;6.472;2023-01-08T03:46:19;10.90;99.90
4811;DHT22;2419;51.276;6.472;2023-01-08T03:48:48;10.90;99.90
4811;DHT22;2419;51.276;6.472;2023-01-08T03:51:17;10.90;99.90
4811;DHT22;2419;51.276;6.472;2023-01-08T03:53:45;10.90;99.90
4811;DHT22;2419;51.276;6.472;2023-01-08T03:56:14;10.90;99.90
4811;DHT22;2419;51.276;6.472;2023-01-08T03:58:42;10.90;99.90
4811;DHT22;2419;51.276;6.472;2023-01-08T04:01:12;10.90;99.90
4811;DHT22;2419;51.276;6.472;2023-01-08T04:03:40;10.90;99.90
4811;DHT22;2419;51.276;6.472;2023-01-08T04:06:08;10.90;99.90
4811;DHT22;2419;51.276;6.472;2023-01-08T04:08:36;11.00;99.90
4811;DHT22;2419;51.276;6.472;2023-01-08T04:11:04;11.00;99.90
4811;DHT22;2419;51.276;6.472;2023-01-08T04:13:32;11.00;99.90
4811;DHT22;2419;51.276;6.472;2023-01-08T04:16:00;10.90;99.90
4811;DHT22;2419;51.276;6.472;2023-01-08T04:18:29;11.00;99.90
4811;DHT22;2419;51.276;6.472;2023-01-08T04:20:57;11.00;99.90
4811;DHT22;2419;51.276;6.472;2023-01-08T04:23:25;11.00;99.90
4811;DHT22;2419;51.276;6.472;2023-01-08T04:25:53;11.00;99.90
4811;DHT22;2419;51.276;6.472;2023-01-08T04:28:21;11.00;99.90
4811;DHT22;2419;51.276;6.472;2023-01-08T04:30:50;11.00;99.90
4811;DHT22;2419;51.276;6.472;2023-01-08T04:33:18;10.90;99.90
4811;DHT22;2419;51.276;6.472;2023-01-08T04:35:47;10.90;99.90
4811;DHT22;2419;51.276;6.472;2023-01-08T04:38:15;10.90;99.90
4811;DHT22;2419;51.276;6.472;2023-01-08T04:40:43;10.90;99.90
4811;DHT22;2419;51.276;6.472;2023-01-08T04:43:11;10.90;99.90
4811;DHT22;2419;51.276;6.472;2023-01-08T04:45:40;10.80;99.90
4811;DHT22;2419;51.276;6.472;2023-01-08T04:48:08;10.80;99.90
4811;DHT22;2419;51.276;6.472;2023-01-08T04:50:36;10.80;99.90
4811;DHT22;2419;51.276;6.472;2023-01-08T04:53:06;10.90;99.90
4811;DHT22;2419;51.276;6.472;2023-01-08T04:55:34;10.90;99.90
4811;DHT22;2419;51.276;6.472;2023-01-08T04:58:04;10.90;99.90
4811;DHT22;2419;51.276;6.472;2023-01-08T05:00:32;10.80;99.90
4811;DHT22;2419;51.276;6.472;2023-01-08T05:03:00;10.80;99.90
4811;DHT22;2419;51.276;6.472;2023-01-08T05:05:28;10.80;99.90
4811;DHT22;2419;51.276;6.472;2023-01-08T05:07:56;10.80;99.90
4811;DHT22;2419;51.276;6.472;2023-01-08T05:10:26;10.80;99.90
4811;DHT22;2419;51.276;6.472;2023-01-08T05:12:57;10.80;99.90
4811;DHT22;2419;51.276;6.472;2023-01-08T05:15:25;10.80;99.90
4811;DHT22;2419;51.276;6.472;2023-01-08T05:17:58;10.80;99.90
4811;DHT22;2419;51.276;6.472;2023-01-08T05:20:26;10.80;99.90
4811;DHT22;2419;51.276;6.472;2023-01-08T05:22:54;10.70;99.90
4811;DHT22;2419;51.276;6.472;2023-01-08T05:25:25;10.70;99.90
4811;DHT22;2419;51.276;6.472;2023-01-08T05:27:53;10.70;99.90
4811;DHT22;2419;51.276;6.472;2023-01-08T05:30:21;10.70;99.90
4811;DHT22;2419;51.276;6.472;2023-01-08T05:32:49;10.70;99.90
4811;DHT22;2419;51.276;6.472;2023-01-08T05:35:17;10.70;99.90
4811;DHT22;2419;51.276;6.472;2023-01-08T05:37:45;10.60;99.90
4811;DHT22;2419;51.276;6.472;2023-01-08T05:40:13;10.60;99.90
4811;DHT22;2419;51.276;6.472;2023-01-08T05:42:43;10.60;99.90
4811;DHT22;2419;51.276;6.472;2023-01-08T05:45:11;10.70;99.90
4811;DHT22;2419;51.276;6.472;2023-01-08T05:47:41;10.70;99.90
4811;DHT22;2419;51.276;6.472;2023-01-08T05:50:09;10.70;99.90
4811;DHT22;2419;51.276;6.472;2023-01-08T05:52:37;10.80;99.90
4811;DHT22;2419;51.276;6.472;2023-01-08T05:55:05;10.80;99.90
4811;DHT22;2419;51.276;6.472;2023-01-08T05:57:33;10.80;99.90
4811;DHT22;2419;51.276;6.472;2023-01-08T06:00:04;10.70;99.90
4811;DHT22;2419;51.276;6.472;2023-01-08T06:02:37;10.70;99.90
4811;DHT22;2419;51.276;6.472;2023-01-08T06:05:06;10.60;99.90
4811;DHT22;2419;51.276;6.472;2023-01-08T06:07:34;10.50;99.90
4811;DHT22;2419;51.276;6.472;2023-01-08T06:10:02;10.40;99.90
4811;DHT22;2419;51.276;6.472;2023-01-08T06:12:30;10.20;99.90
4811;DHT22;2419;51.276;6.472;2023-01-08T06:14:58;9.80;99.90
4811;DHT22;2419;51.276;6.472;2023-01-08T06:17:28;9.30;99.90
4811;DHT22;2419;51.276;6.472;2023-01-08T06:19:56;9.20;99.90
4811;DHT22;2419;51.276;6.472;2023-01-08T06:22:24;9.00;99.90
4811;DHT22;2419;51.276;6.472;2023-01-08T06:24:53;8.80;99.90
4811;DHT22;2419;51.276;6.472;2023-01-08T06:27:21;8.70;99.90
4811;DHT22;2419;51.276;6.472;2023-01-08T06:29:49;8.70;99.90
4811;DHT22;2419;51.276;6.472;2023-01-08T06:32:17;8.70;99.90
4811;DHT22;2419;51.276;6.472;2023-01-08T06:34:46;8.70;99.90
4811;DHT22;2419;51.276;6.472;2023-01-08T06:37:14;8.70;99.90
4811;DHT22;2419;51.276;6.472;2023-01-08T06:39:42;8.70;99.90
4811;DHT22;2419;51.276;6.472;2023-01-08T06:42:10;8.70;99.90
4811;DHT22;2419;51.276;6.472;2023-01-08T06:44:38;8.70;99.90
4811;DHT22;2419;51.276;6.472;2023-01-08T06:47:06;8.60;99.90
4811;DHT22;2419;51.276;6.472;2023-01-08T06:49:34;8.70;99.90
4811;DHT22;2419;51.276;6.472;2023-01-08T06:52:03;8.60;99.90
4811;DHT22;2419;51.276;6.472;2023-01-08T06:54:31;8.60;99.90
4811;DHT22;2419;51.276;6.472;2023-01-08T06:56:59;8.60;99.90
4811;DHT22;2419;51.276;6.472;2023-01-08T06:59:27;8.50;99.90
4811;DHT22;2419;51.276;6.472;2023-01-08T07:01:56;8.50;99.90
4811;DHT22;2419;51.276;6.472;2023-01-08T07:04:24;8.50;99.90
4811;DHT22;2419;51.276;6.472;2023-01-08T07:06:52;8.50;99.90
4811;DHT22;2419;51.276;6.472;2023-01-08T07:09:21;8.50;99.90
4811;DHT22;2419;51.276;6.472;2023-01-08T07:11:49;8.50;99.90
4811;DHT22;2419;51.276;6.472;2023-01-08T07:14:18;8.50;99.90
4811;DHT22;2419;51.276;6.472;2023-01-08T07:16:45;8.50;99.90
4811;DHT22;2419;51.276;6.472;2023-01-08T07:19:13;8.50;99.90
4811;DHT22;2419;51.276;6.472;2023-01-08T07:21:41;8.50;99.90
4811;DHT22;2419;51.276;6.472;2023-01-08T07:24:10;8.50;99.90
4811;DHT22;2419;51.276;6.472;2023-01-08T07:26:39;8.50;99.90
4811;DHT22;2419;51.276;6.472;2023-01-08T07:29:07;8.50;99.90
4811;DHT22;2419;51.276;6.472;2023-01-08T07:31:35;8.50;99.90
4811;DHT22;2419;51.276;6.472;2023-01-08T07:34:03;8.40;99.90
4811;DHT22;2419;51.276;6.472;2023-01-08T07:36:32;8.40;99.90
4811;DHT22;2419;51.276;6.472;2023-01-08T07:39:00;8.40;99.90
4811;DHT22;2419;51.276;6.472;2023-01-08T07:41:28;8.40;99.90
4811;DHT22;2419;51.276;6.472;2023-01-08T07:43:57;8.40;99.90
4811;DHT22;2419;51.276;6.472;2023-01-08T07:46:25;8.40;99.90
4811;DHT22;2419;51.276;6.472;2023-01-08T07:48:55;8.40;99.90
4811;DHT22;2419;51.276;6.472;2023-01-08T07:51:23;8.40;99.90
4811;DHT22;2419;51.276;6.472;2023-01-08T07:53:51;8.30;99.90
4811;DHT22;2419;51.276;6.472;2023-01-08T07:56:22;8.30;99.90
4811;DHT22;2419;51.276;6.472;2023-01-08T07:58:50;8.20;99.90
4811;DHT22;2419;51.276;6.472;2023-01-08T08:01:20;8.20;99.90
4811;DHT22;2419;51.276;6.472;2023-01-08T08:03:48;8.20;99.90
4811;DHT22;2419;51.276;6.472;2023-01-08T08:06:16;8.10;99.90
4811;DHT22;2419;51.276;6.472;2023-01-08T08:08:44;8.10;99.90
4811;DHT22;2419;51.276;6.472;2023-01-08T08:11:12;8.10;99.90
4811;DHT22;2419;51.276;6.472;2023-01-08T08:13:40;8.10;99.90
4811;DHT22;2419;51.276;6.472;2023-01-08T08:16:10;8.00;99.90
4811;DHT22;2419;51.276;6.472;2023-01-08T08:18:40;8.00;99.90
4811;DHT22;2419;51.276;6.472;2023-01-08T08:21:08;8.00;99.90
4811;DHT22;2419;51.276;6.472;2023-01-08T08:23:36;8.00;99.90
4811;DHT22;2419;51.276;6.472;2023-01-08T08:26:04;8.00;99.90
4811;DHT22;2419;51.276;6.472;2023-01-08T08:28:33;8.00;99.90
4811;DHT22;2419;51.276;6.472;2023-01-08T08:31:01;8.10;99.90
4811;DHT22;2419;51.276;6.472;2023-01-08T08:33:29;8.10;99.90
4811;DHT22;2419;51.276;6.472;2023-01-08T08:35:58;8.30;99.90
4811;DHT22;2419;51.276;6.472;2023-01-08T08:38:26;8.50;99.90
4811;DHT22;2419;51.276;6.472;2023-01-08T08:40:54;8.90;99.90
4811;DHT22;2419;51.276;6.472;2023-01-08T08:43:22;8.70;99.90
4811;DHT22;2419;51.276;6.472;2023-01-08T08:45:50;8.50;99.90
4811;DHT22;2419;51.276;6.472;2023-01-08T08:48:18;8.40;99.90
4811;DHT22;2419;51.276;6.472;2023-01-08T08:50:46;8.40;99.90
4811;DHT22;2419;51.276;6.472;2023-01-08T08:53:16;8.70;99.90
4811;DHT22;2419;51.276;6.472;2023-01-08T08:55:44;9.10;99.90
4811;DHT22;2419;51.276;6.472;2023-01-08T08:58:12;9.70;99.90
4811;DHT22;2419;51.276;6.472;2023-01-08T09:00:41;10.90;99.90
4811;DHT22;2419;51.276;6.472;2023-01-08T09:03:11;12.60;99.90
4811;DHT22;2419;51.276;6.472;2023-01-08T09:05:40;13.20;99.90
4811;DHT22;2419;51.276;6.472;2023-01-08T09:08:10;13.40;99.90
4811;DHT22;2419;51.276;6.472;2023-01-08T09:10:39;13.50;99.90
4811;DHT22;2419;51.276;6.472;2023-01-08T09:13:09;13.10;99.90
4811;DHT22;2419;51.276;6.472;2023-01-08T09:15:37;13.20;99.90
4811;DHT22;2419;51.276;6.472;2023-01-08T09:18:05;12.80;99.90
4811;DHT22;2419;51.276;6.472;2023-01-08T09:20:33;13.00;99.90
4811;DHT22;2419;51.276;6.472;2023-01-08T09:23:01;12.70;99.90
4811;DHT22;2419;51.276;6.472;2023-01-08T09:25:30;12.20;99.90
4811;DHT22;2419;51.276;6.472;2023-01-08T09:28:00;11.60;99.90
4811;DHT22;2419;51.276;6.472;2023-01-08T09:30:29;11.30;99.90
4811;DHT22;2419;51.276;6.472;2023-01-08T09:32:57;11.00;99.90
4811;DHT22;2419;51.276;6.472;2023-01-08T09:35:28;10.60;99.90
4811;DHT22;2419;51.276;6.472;2023-01-08T09:37:57;10.50;99.90
4811;DHT22;2419;51.276;6.472;2023-01-08T09:40:29;10.40;99.90
4811;DHT22;2419;51.276;6.472;2023-01-08T09:43:00;10.50;99.90
4811;DHT22;2419;51.276;6.472;2023-01-08T09:45:30;10.60;99.90
4811;DHT22;2419;51.276;6.472;2023-01-08T09:48:02;10.90;99.90
4811;DHT22;2419;51.276;6.472;2023-01-08T09:50:33;11.50;99.90
4811;DHT22;2419;51.276;6.472;2023-01-08T09:53:01;11.20;99.90
4811;DHT22;2419;51.276;6.472;2023-01-08T09:55:32;11.00;99.90
4811;DHT22;2419;51.276;6.472;2023-01-08T09:58:02;11.00;99.90
4811;DHT22;2419;51.276;6.472;2023-01-08T10:00:32;11.20;99.90
4811;DHT22;2419;51.276;6.472;2023-01-08T10:03:01;11.30;99.90
4811;DHT22;2419;51.276;6.472;2023-01-08T10:05:29;11.10;99.90
4811;DHT22;2419;51.276;6.472;2023-01-08T10:07:57;11.10;99.90
4811;DHT22;2419;51.276;6.472;2023-01-08T10:10:28;11.00;99.90
4811;DHT22;2419;51.276;6.472;2023-01-08T10:12:57;11.50;99.90
4811;DHT22;2419;51.276;6.472;2023-01-08T10:15:27;12.40;99.90
4811;DHT22;2419;51.276;6.472;2023-01-08T10:17:59;12.00;99.90
4811;DHT22;2419;51.276;6.472;2023-01-08T10:20:30;12.70;99.90
4811;DHT22;2419;51.276;6.472;2023-01-08T10:23:08;12.70;99.90
4811;DHT22;2419;51.276;6.472;2023-01-08T10:25:52;14.00;99.90
4811;DHT22;2419;51.276;6.472;2023-01-08T10:28:22;12.80;99.90
4811;DHT22;2419;51.276;6.472;2023-01-08T10:30:53;12.00;99.90
4811;DHT22;2419;51.276;6.472;2023-01-08T10:33:29;11.60;99.90
4811;DHT22;2419;51.276;6.472;2023-01-08T10:36:02;12.10;99.90
4811;DHT22;2419;51.276;6.472;2023-01-08T10:38:33;11.90;99.90
4811;DHT22;2419;51.276;6.472;2023-01-08T10:41:04;11.50;99.90
4811;DHT22;2419;51.276;6.472;2023-01-08T10:43:36;11.50;99.90
4811;DHT22;2419;51.276;6.472;2023-01-08T10:46:16;11.50;99.90
4811;DHT22;2419;51.276;6.472;2023-01-08T10:48:50;11.40;99.90
4811;DHT22;2419;51.276;6.472;2023-01-08T10:51:21;11.50;99.90
4811;DHT22;2419;51.276;6.472;2023-01-08T10:53:51;11.60;99.90
4811;DHT22;2419;51.276;6.472;2023-01-08T10:56:21;11.30;99.90
4811;DHT22;2419;51.276;6.472;2023-01-08T10:58:50;11.20;99.90
4811;DHT22;2419;51.276;6.472;2023-01-08T11:01:22;11.10;99.90
4811;DHT22;2419;51.276;6.472;2023-01-08T11:03:52;11.00;99.90
4811;DHT22;2419;51.276;6.472;2023-01-08T11:06:25;11.00;99.90
4811;DHT22;2419;51.276;6.472;2023-01-08T11:08:56;10.90;99.90
4811;DHT22;2419;51.276;6.472;2023-01-08T11:11:31;10.70;99.90
4811;DHT22;2419;51.276;6.472;2023-01-08T11:14:02;10.60;99.90
4811;DHT22;2419;51.276;6.472;2023-01-08T11:16:35;10.50;99.90
4811;DHT22;2419;51.276;6.472;2023-01-08T11:19:12;10.30;99.90
4811;DHT22;2419;51.276;6.472;2023-01-08T11:21:53;10.10;99.90
4811;DHT22;2419;51.276;6.472;2023-01-08T11:24:24;10.00;99.90
4811;DHT22;2419;51.276;6.472;2023-01-08T11:26:57;9.90;99.90
4811;DHT22;2419;51.276;6.472;2023-01-08T11:29:30;9.90;99.90
4811;DHT22;2419;51.276;6.472;2023-01-08T11:32:28;9.90;99.90
4811;DHT22;2419;51.276;6.472;2023-01-08T11:35:00;9.90;99.90
4811;DHT22;2419;51.276;6.472;2023-01-08T11:37:32;9.90;99.90
4811;DHT22;2419;51.276;6.472;2023-01-08T11:40:12;9.90;99.90
4811;DHT22;2419;51.276;6.472;2023-01-08T11:42:53;9.90;99.90
4811;DHT22;2419;51.276;6.472;2023-01-08T11:45:29;9.90;99.90
4811;DHT22;2419;51.276;6.472;2023-01-08T11:48:17;9.90;99.90
4811;DHT22;2419;51.276;6.472;2023-01-08T11:51:04;9.90;99.90
4811;DHT22;2419;51.276;6.472;2023-01-08T11:53:42;9.80;99.90
4811;DHT22;2419;51.276;6.472;2023-01-08T11:56:20;10.60;99.90
4811;DHT22;2419;51.276;6.472;2023-01-08T11:59:05;11.10;99.90
4811;DHT22;2419;51.276;6.472;2023-01-08T12:01:46;12.10;99.90
4811;DHT22;2419;51.276;6.472;2023-01-08T12:04:37;12.10;99.90
4811;DHT22;2419;51.276;6.472;2023-01-08T12:07:14;12.30;99.90
4811;DHT22;2419;51.276;6.472;2023-01-08T12:09:49;12.50;99.90
4811;DHT22;2419;51.276;6.472;2023-01-08T12:12:33;12.90;99.90
4811;DHT22;2419;51.276;6.472;2023-01-08T12:15:11;13.20;99.90
4811;DHT22;2419;51.276;6.472;2023-01-08T12:18:15;13.20;99.90
4811;DHT22;2419;51.276;6.472;2023-01-08T12:20:55;13.00;99.90
4811;DHT22;2419;51.276;6.472;2023-01-08T12:23:40;13.40;99.90
4811;DHT22;2419;51.276;6.472;2023-01-08T12:26:18;13.00;99.90
4811;DHT22;2419;51.276;6.472;2023-01-08T12:29:32;13.00;99.90
4811;DHT22;2419;51.276;6.472;2023-01-08T12:32:26;13.40;99.90
4811;DHT22;2419;51.276;6.472;2023-01-08T12:34:58;13.20;99.90
4811;DHT22;2419;51.276;6.472;2023-01-08T12:37:33;13.60;99.90
4811;DHT22;2419;51.276;6.472;2023-01-08T12:40:11;13.80;99.90
4811;DHT22;2419;51.276;6.472;2023-01-08T12:42:42;13.40;99.90
4811;DHT22;2419;51.276;6.472;2023-01-08T12:45:23;13.50;99.90
4811;DHT22;2419;51.276;6.472;2023-01-08T12:47:55;13.20;99.90
4811;DHT22;2419;51.276;6.472;2023-01-08T12:50:40;12.90;99.90
4811;DHT22;2419;51.276;6.472;2023-01-08T12:53:20;12.80;99.90
4811;DHT22;2419;51.276;6.472;2023-01-08T12:55:54;13.40;99.90
4811;DHT22;2419;51.276;6.472;2023-01-08T12:58:36;13.70;99.90
4811;DHT22;2419;51.276;6.472;2023-01-08T13:01:15;13.50;99.90
4811;DHT22;2419;51.276;6.472;2023-01-08T13:03:49;12.80;99.90
4811;DHT22;2419;51.276;6.472;2023-01-08T13:06:18;12.80;99.90
4811;DHT22;2419;51.276;6.472;2023-01-08T13:08:50;13.00;99.90
4811;DHT22;2419;51.276;6.472;2023-01-08T13:11:24;12.90;99.90
4811;DHT22;2419;51.276;6.472;2023-01-08T13:14:00;12.90;99.90
4811;DHT22;2419;51.276;6.472;2023-01-08T13:16:37;12.70;99.90
4811;DHT22;2419;51.276;6.472;2023-01-08T13:19:20;12.70;99.90
4811;DHT22;2419;51.276;6.472;2023-01-08T13:21:51;12.70;99.90
4811;DHT22;2419;51.276;6.472;2023-01-08T13:24:24;12.40;99.90
4811;DHT22;2419;51.276;6.472;2023-01-08T13:26:56;12.00;99.90
4811;DHT22;2419;51.276;6.472;2023-01-08T13:29:35;11.90;99.90
4811;DHT22;2419;51.276;6.472;2023-01-08T13:32:25;12.20;99.90
4811;DHT22;2419;51.276;6.472;2023-01-08T13:35:02;12.10;99.90
4811;DHT22;2419;51.276;6.472;2023-01-08T13:37:46;12.20;99.90
4811;DHT22;2419;51.276;6.472;2023-01-08T13:40:38;12.40;99.90
4811;DHT22;2419;51.276;6.472;2023-01-08T13:43:12;12.40;99.90
4811;DHT22;2419;51.276;6.472;2023-01-08T13:45:41;12.30;99.90
4811;DHT22;2419;51.276;6.472;2023-01-08T13:48:20;12.20;99.90
4811;DHT22;2419;51.276;6.472;2023-01-08T13:50:49;12.30;99.90
4811;DHT22;2419;51.276;6.472;2023-01-08T13:53:18;11.90;99.90
4811;DHT22;2419;51.276;6.472;2023-01-08T13:55:54;11.50;99.90
4811;DHT22;2419;51.276;6.472;2023-01-08T13:58:25;11.40;99.90
4811;DHT22;2419;51.276;6.472;2023-01-08T14:00:57;11.60;99.90
4811;DHT22;2419;51.276;6.472;2023-01-08T14:03:27;12.00;99.90
4811;DHT22;2419;51.276;6.472;2023-01-08T14:06:05;11.80;99.90
4811;DHT22;2419;51.276;6.472;2023-01-08T14:08:33;11.90;99.90
4811;DHT22;2419;51.276;6.472;2023-01-08T14:11:05;11.80;99.90
4811;DHT22;2419;51.276;6.472;2023-01-08T14:13:34;11.90;99.90
4811;DHT22;2419;51.276;6.472;2023-01-08T14:16:05;11.80;99.90
4811;DHT22;2419;51.276;6.472;2023-01-08T14:18:39;11.40;99.90
4811;DHT22;2419;51.276;6.472;2023-01-08T14:21:08;11.40;99.90
4811;DHT22;2419;51.276;6.472;2023-01-08T14:23:38;11.30;99.90
4811;DHT22;2419;51.276;6.472;2023-01-08T14:26:17;11.10;99.90
4811;DHT22;2419;51.276;6.472;2023-01-08T14:28:50;11.10;99.90
4811;DHT22;2419;51.276;6.472;2023-01-08T14:31:20;11.00;99.90
4811;DHT22;2419;51.276;6.472;2023-01-08T14:33:49;10.80;99.90
4811;DHT22;2419;51.276;6.472;2023-01-08T14:36:19;10.80;99.90
4811;DHT22;2419;51.276;6.472;2023-01-08T14:38:48;10.80;99.90
4811;DHT22;2419;51.276;6.472;2023-01-08T14:41:23;10.70;99.90
4811;DHT22;2419;51.276;6.472;2023-01-08T14:44:15;10.60;99.90
4811;DHT22;2419;51.276;6.472;2023-01-08T14:46:52;10.60;99.90
4811;DHT22;2419;51.276;6.472;2023-01-08T14:49:23;10.40;99.90
4811;DHT22;2419;51.276;6.472;2023-01-08T14:51:52;10.40;99.90
4811;DHT22;2419;51.276;6.472;2023-01-08T14:54:25;10.30;99.90
4811;DHT22;2419;51.276;6.472;2023-01-08T14:56:56;10.30;99.90
4811;DHT22;2419;51.276;6.472;2023-01-08T14:59:29;10.20;99.90
4811;DHT22;2419;51.276;6.472;2023-01-08T15:02:00;10.20;99.90
4811;DHT22;2419;51.276;6.472;2023-01-08T15:04:30;10.20;99.90
4811;DHT22;2419;51.276;6.472;2023-01-08T15:07:06;10.10;99.90
4811;DHT22;2419;51.276;6.472;2023-01-08T15:09:35;10.00;99.90
4811;DHT22;2419;51.276;6.472;2023-01-08T15:12:21;10.00;99.90
4811;DHT22;2419;51.276;6.472;2023-01-08T15:14:49;10.00;99.90
4811;DHT22;2419;51.276;6.472;2023-01-08T15:17:20;9.90;99.90
4811;DHT22;2419;51.276;6.472;2023-01-08T15:19:50;9.90;99.90
4811;DHT22;2419;51.276;6.472;2023-01-08T15:22:23;9.80;99.90
4811;DHT22;2419;51.276;6.472;2023-01-08T15:24:57;9.80;99.90
4811;DHT22;2419;51.276;6.472;2023-01-08T15:27:28;9.90;99.90
4811;DHT22;2419;51.276;6.472;2023-01-08T15:29:57;9.90;99.90
4811;DHT22;2419;51.276;6.472;2023-01-08T15:32:28;9.80;99.90
4811;DHT22;2419;51.276;6.472;2023-01-08T15:34:58;9.80;99.90
4811;DHT22;2419;51.276;6.472;2023-01-08T15:37:26;9.80;99.90
4811;DHT22;2419;51.276;6.472;2023-01-08T15:39:56;9.70;99.90
4811;DHT22;2419;51.276;6.472;2023-01-08T15:42:28;9.70;99.90
4811;DHT22;2419;51.276;6.472;2023-01-08T15:45:16;9.70;99.90
4811;DHT22;2419;51.276;6.472;2023-01-08T15:47:45;9.70;99.90
4811;DHT22;2419;51.276;6.472;2023-01-08T15:50:13;9.70;99.90
4811;DHT22;2419;51.276;6.472;2023-01-08T15:52:42;9.70;99.90
4811;DHT22;2419;51.276;6.472;2023-01-08T15:55:15;9.80;99.90
4811;DHT22;2419;51.276;6.472;2023-01-08T15:57:45;9.80;99.90
4811;DHT22;2419;51.276;6.472;2023-01-08T16:00:15;9.80;99.90
4811;DHT22;2419;51.276;6.472;2023-01-08T16:02:44;9.90;99.90
4811;DHT22;2419;51.276;6.472;2023-01-08T16:05:14;9.90;99.90
4811;DHT22;2419;51.276;6.472;2023-01-08T16:07:43;9.90;99.90
4811;DHT22;2419;51.276;6.472;2023-01-08T16:10:12;9.90;99.90
4811;DHT22;2419;51.276;6.472;2023-01-08T16:12:40;9.90;99.90
4811;DHT22;2419;51.276;6.472;2023-01-08T16:15:12;10.00;99.90
4811;DHT22;2419;51.276;6.472;2023-01-08T16:17:40;9.90;99.90
4811;DHT22;2419;51.276;6.472;2023-01-08T16:20:10;9.90;99.90
4811;DHT22;2419;51.276;6.472;2023-01-08T16:22:39;9.80;99.90
4811;DHT22;2419;51.276;6.472;2023-01-08T16:25:08;9.70;99.90
4811;DHT22;2419;51.276;6.472;2023-01-08T16:27:36;9.60;99.90
4811;DHT22;2419;51.276;6.472;2023-01-08T16:30:07;9.60;99.90
4811;DHT22;2419;51.276;6.472;2023-01-08T16:32:39;9.60;99.90
4811;DHT22;2419;51.276;6.472;2023-01-08T16:35:08;9.50;99.90